Vohburg — V2OW7 — position and weather

sailwx.info

Track history (hours):
 
Tides and Currents Weather Stations Pressure Air Temp Water Temp Dewpoint Dewpoint Depression Visibility Wind Speed Wind Dir Waves Ship Positions

Vohburg

Last reported at 2017-Nov-20 00:30 UTC. Time now 2017-Nov-22 03:44 UTC.
Position N 54°26' W 000°18'.

Length 140 m; draft 7.1 m.

Type: Ship (hazmat cat A). MMSI: 305773000.

Date/timePositionNaut miles runAvg speedWind from/ knotsBaromVisibWave heightAir tempDewpointWater temp
2017-Nov-20 00:30N 54°26' W 000°18'815.7
2017-Nov-20 00:00N 54°32' W 000°28'915.9
2017-Nov-19 23:25N 54°36' W 000°42'715.9
2017-Nov-19 23:00N 54°38' W 000°53'815.6
2017-Nov-19 22:30N 54°40' W 001°06'1 0.0
2017-Nov-19 08:19N 54°41' W 001°07'2 4.9
2017-Nov-19 08:00N 54°41' W 001°05'3 6.5
2017-Nov-19 07:30N 54°41' W 000°59'4 7.6
2017-Nov-19 07:00N 54°40' W 000°53'14 7.6
2017-Nov-19 05:10N 54°38' W 000°29'1 9.7
2017-Nov-19 05:00N 54°37' W 000°26'5 9.6
2017-Nov-19 04:30N 54°36' W 000°18'5 9.6
2017-Nov-19 04:00N 54°35' W 000°10'5 9.7
2017-Nov-19 03:30N 54°34' W 000°02'5 9.6
2017-Nov-19 03:00N 54°33' E 000°06'5 9.3
2017-Nov-19 02:30N 54°33' E 000°14'5 9.4
2017-Nov-19 02:00N 54°32' E 000°22'26210.4
2017-Nov-18 00:53N 54°07' E 007°49'615.7
2017-Nov-18 00:30N 54°04' E 007°58'815.2
2017-Nov-18 00:00N 54°01' E 008°10'613.1
2017-Nov-17 23:30N 53°60' E 008°20'714.0
2017-Nov-17 23:00N 53°58' E 008°32'713.7
2017-Nov-17 22:30N 53°54' E 008°42'511.1
2017-Nov-17 22:00N 53°50' E 008°48'713.6
2017-Nov-17 21:30N 53°51' E 008°60'611.4
2017-Nov-17 21:00N 53°54' E 009°09'0 0.1
2017-Nov-17 20:30N 53°54' E 009°09'1 1.9
2017-Nov-17 20:00N 53°54' E 009°10'4 7.4
2017-Nov-17 19:30N 53°57' E 009°14'4 8.6
2017-Nov-17 19:00N 54°01' E 009°18'4 8.2
2017-Nov-17 18:30N 54°05' E 009°19'4 8.2
2017-Nov-17 18:00N 54°09' E 009°21'4 8.5
2017-Nov-17 17:30N 54°11' E 009°28'3 6.7
2017-Nov-17 17:00N 54°12' E 009°33'1 2.1
2017-Nov-17 16:30N 54°12' E 009°34'4 7.3
2017-Nov-17 16:00N 54°16' E 009°37'4 7.8
2017-Nov-17 15:30N 54°18' E 009°43'4 8.1
2017-Nov-17 15:00N 54°21' E 009°47'22 5.6
2017-Nov-17 11:07N 54°31' E 010°21'3 9.3
2017-Nov-17 10:51N 54°32' E 010°24'3 8.4
2017-Nov-17 10:28N 54°33' E 010°30'614.0
2017-Nov-17 10:01N 54°35' E 010°40'815.5
2017-Nov-17 09:31N 54°35' E 010°54'815.5
2017-Nov-17 09:01N 54°36' E 011°07'714.8
2017-Nov-17 08:31N 54°34' E 011°19'815.2
2017-Nov-17 08:01N 54°31' E 011°31'815.4
2017-Nov-17 07:30N 54°27' E 011°43'9914.6
2017-Nov-17 00:41N 54°38' E 014°33'516.1
2017-Nov-17 00:24N 54°39' E 014°41'615.9
2017-Nov-17 00:00N 54°40' E 014°52'816.2
2017-Nov-16 23:31N 54°41' E 015°06'10416.3
2017-Nov-16 17:07N 54°57' E 018°05'216.6
2017-Nov-16 17:00N 54°57' E 018°08'816.4
2017-Nov-16 16:30N 54°57' E 018°22'816.0
2017-Nov-16 16:00N 54°57' E 018°36'816.8
2017-Nov-16 15:31N 54°52' E 018°47'816.9
2017-Nov-16 15:01N 54°46' E 018°58'816.8
2017-Nov-16 14:31N 54°38' E 018°56'816.1
2017-Nov-16 14:01N 54°32' E 018°46'714.0
2017-Nov-16 13:31N 54°32' E 018°34'2 3.7
2017-Nov-16 12:58N 54°33' E 018°31'0 0.0
2017-Nov-16 12:28N 54°33' E 018°31'0 0.0
2017-Nov-16 11:58N 54°33' E 018°31'0 0.0
2017-Nov-16 11:28N 54°33' E 018°31'0 0.0
2017-Nov-16 10:58N 54°33' E 018°31'0 0.0
2017-Nov-16 10:25N 54°33' E 018°31'0 0.0
2017-Nov-16 09:58N 54°33' E 018°31'0 0.0
2017-Nov-16 09:28N 54°33' E 018°31'0 0.0
2017-Nov-16 08:58N 54°33' E 018°31'0 0.0
2017-Nov-16 08:28N 54°33' E 018°31'0 0.0
2017-Nov-16 07:58N 54°33' E 018°31'0 0.0
2017-Nov-16 07:28N 54°33' E 018°31'0 0.0
2017-Nov-16 06:58N 54°33' E 018°31'0 0.0
2017-Nov-16 06:28N 54°33' E 018°31'0 0.0
2017-Nov-16 05:58N 54°33' E 018°31'0 0.9
2017-Nov-16 05:31N 54°32' E 018°31'4 7.1
2017-Nov-16 05:00N 54°32' E 018°37'611.5
2017-Nov-16 04:31N 54°32' E 018°47'713.8
2017-Nov-16 04:01N 54°38' E 018°54'713.9
2017-Nov-16 03:30N 54°45' E 018°57'714.0
2017-Nov-16 03:00N 54°52' E 018°57'714.0
2017-Nov-16 02:30N 54°59' E 018°58'714.1
2017-Nov-16 02:00N 55°06' E 018°58'714.0
2017-Nov-16 01:30N 55°13' E 018°59'291 7.9
2017-Nov-14 12:50N 59°34' E 022°58'516.4
2017-Nov-14 12:30N 59°35' E 023°09'816.4
2017-Nov-14 12:00N 59°38' E 023°24'816.3
2017-Nov-14 11:30N 59°40' E 023°39'816.6
2017-Nov-14 11:00N 59°42' E 023°55'916.5
2017-Nov-14 10:29N 59°45' E 024°12'816.6
2017-Nov-14 10:00N 59°47' E 024°27'816.5
2017-Nov-14 09:31N 59°49' E 024°43'816.4
2017-Nov-14 09:01N 59°50' E 024°59'3716.7
2017-Nov-14 06:46N 59°58' E 026°12'416.8
2017-Nov-14 06:31N 59°59' E 026°20'816.7
2017-Nov-14 06:01N 60°01' E 026°37'816.8
2017-Nov-14 05:31N 60°00' E 026°53'815.9
2017-Nov-14 05:01N 60°01' E 027°09'917.0
2017-Nov-14 04:30N 60°05' E 027°24'816.9
2017-Nov-14 04:00N 60°10' E 027°38'815.5
2017-Nov-14 03:30N 60°11' E 027°54'816.9
2017-Nov-14 03:00N 60°09' E 028°10'816.4
2017-Nov-14 02:30N 60°05' E 028°24'816.4
2017-Nov-14 02:00N 60°03' E 028°40'916.9
2017-Nov-14 01:30N 60°02' E 028°58'1615.1
2017-Nov-14 00:26N 60°02' E 029°30'613.8
2017-Nov-14 00:00N 59°60' E 029°41'1 2.3
2017-Nov-13 23:29N 60°00' E 029°43'0 0.1
2017-Nov-13 22:56N 60°00' E 029°43'0 0.0
2017-Nov-13 22:26N 60°00' E 029°43'0 0.0
2017-Nov-13 21:59N 60°00' E 029°43'140 7.0
2017-Nov-13 02:00N 59°48' E 025°04'815.5
2017-Nov-13 01:31N 59°46' E 024°49'815.7
2017-Nov-13 01:01N 59°45' E 024°34'815.6
2017-Nov-13 00:30N 59°43' E 024°19'815.6
2017-Nov-12 23:59N 59°40' E 024°03'715.7
2017-Nov-12 23:31N 59°38' E 023°49'815.7
2017-Nov-12 23:00N 59°36' E 023°35'815.7
2017-Nov-12 22:30N 59°33' E 023°20'815.7
2017-Nov-12 22:00N 59°31' E 023°05'28016.2
2017-Nov-12 04:42N 56°09' E 017°01'416.5
2017-Nov-12 04:30N 56°07' E 016°56'816.5
2017-Nov-12 04:01N 56°02' E 016°45'816.5
2017-Nov-12 03:30N 55°58' E 016°32'816.7
2017-Nov-12 03:01N 55°54' E 016°19'816.7
2017-Nov-12 02:31N 55°50' E 016°06'816.7
2017-Nov-12 02:01N 55°45' E 015°53'816.7
2017-Nov-12 01:31N 55°42' E 015°40'816.7
2017-Nov-12 01:01N 55°38' E 015°27'816.8
2017-Nov-12 00:30N 55°34' E 015°14'816.6
2017-Nov-12 00:00N 55°30' E 015°01'816.7
2017-Nov-11 23:30N 55°26' E 014°48'816.3
2017-Nov-11 23:00N 55°22' E 014°36'816.6
2017-Nov-11 22:30N 55°16' E 014°27'816.6
2017-Nov-11 22:00N 55°09' E 014°18'816.5
2017-Nov-11 21:30N 55°02' E 014°09'916.8
2017-Nov-11 20:58N 54°59' E 013°55'4416.7
2017-Nov-11 18:18N 54°44' E 012°42'1116.8
2017-Nov-11 17:39N 54°38' E 012°26'316.9
2017-Nov-11 17:29N 54°36' E 012°22'1515.7
2017-Nov-11 16:31N 54°24' E 012°06'017.8
2017-Nov-11 16:30N 54°24' E 012°06'917.2
2017-Nov-11 16:00N 54°24' E 011°51'817.1
2017-Nov-11 15:31N 54°27' E 011°37'917.7
2017-Nov-11 15:01N 54°31' E 011°23'918.0
2017-Nov-11 14:31N 54°35' E 011°09'917.5
2017-Nov-11 14:01N 54°35' E 010°54'817.0
2017-Nov-11 13:31N 54°34' E 010°40'816.7
2017-Nov-11 13:01N 54°31' E 010°26'18 6.4
2017-Nov-11 10:08N 54°21' E 009°60'2 8.2
2017-Nov-11 09:53N 54°20' E 009°56'3 6.0
2017-Nov-11 09:23N 54°22' E 009°51'3 8.1
2017-Nov-11 09:00N 54°21' E 009°46'4 8.1
2017-Nov-11 08:30N 54°18' E 009°42'3 6.3
2017-Nov-11 08:00N 54°16' E 009°38'4 7.1
2017-Nov-11 07:30N 54°13' E 009°35'4 7.3
2017-Nov-11 07:00N 54°11' E 009°30'4 7.8
2017-Nov-11 06:30N 54°10' E 009°24'4 7.6
2017-Nov-11 06:00N 54°07' E 009°20'4 8.4
2017-Nov-11 05:30N 54°03' E 009°18'4 8.3
2017-Nov-11 05:01N 53°59' E 009°16'4 8.4
2017-Nov-11 04:30N 53°55' E 009°12'3 5.0
2017-Nov-11 04:00N 53°54' E 009°09'0 0.0
2017-Nov-11 03:30N 53°54' E 009°09'0 0.0
2017-Nov-11 03:01N 53°54' E 009°09'2 3.8
2017-Nov-11 02:30N 53°53' E 009°06'611.2
2017-Nov-11 02:01N 53°51' E 008°57'815.0
2017-Nov-11 01:30N 53°52' E 008°44'611.0
2017-Nov-11 01:00N 53°56' E 008°39'714.6
2017-Nov-11 00:30N 53°59' E 008°27'816.8
2017-Nov-11 00:01N 53°60' E 008°13'815.4
2017-Nov-10 23:30N 53°58' E 008°00'815.9
2017-Nov-10 23:01N 53°56' E 007°47'815.5
2017-Nov-10 22:29N 53°55' E 007°33'11513.2
2017-Nov-10 13:46N 53°13' E 004°33'312.8
2017-Nov-10 13:30N 53°10' E 004°30'712.9
2017-Nov-10 12:55N 53°04' E 004°23'613.3
2017-Nov-10 12:30N 52°59' E 004°20'713.4
2017-Nov-10 12:00N 52°52' E 004°15'713.8
2017-Nov-10 11:30N 52°46' E 004°09'814.5
2017-Nov-10 10:59N 52°40' E 004°03'815.6
2017-Nov-10 10:30N 52°33' E 003°57'815.7
2017-Nov-10 10:00N 52°26' E 003°54'815.8
2017-Nov-10 09:30N 52°18' E 003°52'815.9
2017-Nov-10 09:00N 52°10' E 003°54'816.4
2017-Nov-10 08:31N 52°02' E 003°58'611.4
2017-Nov-10 08:00N 51°59' E 004°06'612.4
2017-Nov-10 07:30N 51°55' E 004°14'5 9.5
2017-Nov-10 07:00N 51°54' E 004°21'3 5.1
2017-Nov-10 06:30N 51°53' E 004°25'0 0.0
2017-Nov-10 06:00N 51°53' E 004°25'0 0.0
2017-Nov-10 05:30N 51°53' E 004°25'0 0.0
2017-Nov-10 05:00N 51°53' E 004°25'0 0.0
2017-Nov-10 04:30N 51°53' E 004°25'0 0.0
2017-Nov-10 04:00N 51°53' E 004°25'0 0.0
2017-Nov-10 03:30N 51°53' E 004°25'0 0.0
2017-Nov-10 03:00N 51°53' E 004°25'0 0.0
2017-Nov-10 02:30N 51°53' E 004°25'0 0.0
2017-Nov-10 02:00N 51°53' E 004°25'0 0.0
2017-Nov-10 01:30N 51°53' E 004°25'0 0.1
2017-Nov-10 01:00N 51°53' E 004°25'  
Track history (hours):
 
Tides and Currents Weather Stations Pressure Air Temp Water Temp Dewpoint Dewpoint Depression Visibility Wind Speed Wind Dir Waves Ship Positions

Vohburg

Last reported at 2017-Nov-20 00:30 UTC. Time now 2017-Nov-22 03:44 UTC.
Position N 54°26' W 000°18'.

Length 140 m; draft 7.1 m.

Type: Ship (hazmat cat A). MMSI: 305773000.

Date/timePositionNaut miles runAvg speedWind from/ knotsBaromVisibWave heightAir tempDewpointWater temp
2017-Nov-20 00:30N 54°26' W 000°18'815.7
2017-Nov-20 00:00N 54°32' W 000°28'915.9
2017-Nov-19 23:25N 54°36' W 000°42'715.9
2017-Nov-19 23:00N 54°38' W 000°53'815.6
2017-Nov-19 22:30N 54°40' W 001°06'1 0.0
2017-Nov-19 08:19N 54°41' W 001°07'2 4.9
2017-Nov-19 08:00N 54°41' W 001°05'3 6.5
2017-Nov-19 07:30N 54°41' W 000°59'4 7.6
2017-Nov-19 07:00N 54°40' W 000°53'14 7.6
2017-Nov-19 05:10N 54°38' W 000°29'1 9.7
2017-Nov-19 05:00N 54°37' W 000°26'5 9.6
2017-Nov-19 04:30N 54°36' W 000°18'5 9.6
2017-Nov-19 04:00N 54°35' W 000°10'5 9.7
2017-Nov-19 03:30N 54°34' W 000°02'5 9.6
2017-Nov-19 03:00N 54°33' E 000°06'5 9.3
2017-Nov-19 02:30N 54°33' E 000°14'5 9.4
2017-Nov-19 02:00N 54°32' E 000°22'26210.4
2017-Nov-18 00:53N 54°07' E 007°49'615.7
2017-Nov-18 00:30N 54°04' E 007°58'815.2
2017-Nov-18 00:00N 54°01' E 008°10'613.1
2017-Nov-17 23:30N 53°60' E 008°20'714.0
2017-Nov-17 23:00N 53°58' E 008°32'713.7
2017-Nov-17 22:30N 53°54' E 008°42'511.1
2017-Nov-17 22:00N 53°50' E 008°48'713.6
2017-Nov-17 21:30N 53°51' E 008°60'611.4
2017-Nov-17 21:00N 53°54' E 009°09'0 0.1
2017-Nov-17 20:30N 53°54' E 009°09'1 1.9
2017-Nov-17 20:00N 53°54' E 009°10'4 7.4
2017-Nov-17 19:30N 53°57' E 009°14'4 8.6
2017-Nov-17 19:00N 54°01' E 009°18'4 8.2
2017-Nov-17 18:30N 54°05' E 009°19'4 8.2
2017-Nov-17 18:00N 54°09' E 009°21'4 8.5
2017-Nov-17 17:30N 54°11' E 009°28'3 6.7
2017-Nov-17 17:00N 54°12' E 009°33'1 2.1
2017-Nov-17 16:30N 54°12' E 009°34'4 7.3
2017-Nov-17 16:00N 54°16' E 009°37'4 7.8
2017-Nov-17 15:30N 54°18' E 009°43'4 8.1
2017-Nov-17 15:00N 54°21' E 009°47'22 5.6
2017-Nov-17 11:07N 54°31' E 010°21'3 9.3
2017-Nov-17 10:51N 54°32' E 010°24'3 8.4
2017-Nov-17 10:28N 54°33' E 010°30'614.0
2017-Nov-17 10:01N 54°35' E 010°40'815.5
2017-Nov-17 09:31N 54°35' E 010°54'815.5
2017-Nov-17 09:01N 54°36' E 011°07'714.8
2017-Nov-17 08:31N 54°34' E 011°19'815.2
2017-Nov-17 08:01N 54°31' E 011°31'815.4
2017-Nov-17 07:30N 54°27' E 011°43'9914.6
2017-Nov-17 00:41N 54°38' E 014°33'516.1
2017-Nov-17 00:24N 54°39' E 014°41'615.9
2017-Nov-17 00:00N 54°40' E 014°52'816.2
2017-Nov-16 23:31N 54°41' E 015°06'10416.3
2017-Nov-16 17:07N 54°57' E 018°05'216.6
2017-Nov-16 17:00N 54°57' E 018°08'816.4
2017-Nov-16 16:30N 54°57' E 018°22'816.0
2017-Nov-16 16:00N 54°57' E 018°36'816.8
2017-Nov-16 15:31N 54°52' E 018°47'816.9
2017-Nov-16 15:01N 54°46' E 018°58'816.8
2017-Nov-16 14:31N 54°38' E 018°56'816.1
2017-Nov-16 14:01N 54°32' E 018°46'714.0
2017-Nov-16 13:31N 54°32' E 018°34'2 3.7
2017-Nov-16 12:58N 54°33' E 018°31'0 0.0
2017-Nov-16 12:28N 54°33' E 018°31'0 0.0
2017-Nov-16 11:58N 54°33' E 018°31'0 0.0
2017-Nov-16 11:28N 54°33' E 018°31'0 0.0
2017-Nov-16 10:58N 54°33' E 018°31'0 0.0
2017-Nov-16 10:25N 54°33' E 018°31'0 0.0
2017-Nov-16 09:58N 54°33' E 018°31'0 0.0
2017-Nov-16 09:28N 54°33' E 018°31'0 0.0
2017-Nov-16 08:58N 54°33' E 018°31'0 0.0
2017-Nov-16 08:28N 54°33' E 018°31'0 0.0
2017-Nov-16 07:58N 54°33' E 018°31'0 0.0
2017-Nov-16 07:28N 54°33' E 018°31'0 0.0
2017-Nov-16 06:58N 54°33' E 018°31'0 0.0
2017-Nov-16 06:28N 54°33' E 018°31'0 0.0
2017-Nov-16 05:58N 54°33' E 018°31'0 0.9
2017-Nov-16 05:31N 54°32' E 018°31'4 7.1
2017-Nov-16 05:00N 54°32' E 018°37'611.5
2017-Nov-16 04:31N 54°32' E 018°47'713.8
2017-Nov-16 04:01N 54°38' E 018°54'713.9
2017-Nov-16 03:30N 54°45' E 018°57'714.0
2017-Nov-16 03:00N 54°52' E 018°57'714.0
2017-Nov-16 02:30N 54°59' E 018°58'714.1
2017-Nov-16 02:00N 55°06' E 018°58'714.0
2017-Nov-16 01:30N 55°13' E 018°59'291 7.9
2017-Nov-14 12:50N 59°34' E 022°58'516.4
2017-Nov-14 12:30N 59°35' E 023°09'816.4
2017-Nov-14 12:00N 59°38' E 023°24'816.3
2017-Nov-14 11:30N 59°40' E 023°39'816.6
2017-Nov-14 11:00N 59°42' E 023°55'916.5
2017-Nov-14 10:29N 59°45' E 024°12'816.6
2017-Nov-14 10:00N 59°47' E 024°27'816.5
2017-Nov-14 09:31N 59°49' E 024°43'816.4
2017-Nov-14 09:01N 59°50' E 024°59'3716.7
2017-Nov-14 06:46N 59°58' E 026°12'416.8
2017-Nov-14 06:31N 59°59' E 026°20'816.7
2017-Nov-14 06:01N 60°01' E 026°37'816.8
2017-Nov-14 05:31N 60°00' E 026°53'815.9
2017-Nov-14 05:01N 60°01' E 027°09'917.0
2017-Nov-14 04:30N 60°05' E 027°24'816.9
2017-Nov-14 04:00N 60°10' E 027°38'815.5
2017-Nov-14 03:30N 60°11' E 027°54'816.9
2017-Nov-14 03:00N 60°09' E 028°10'816.4
2017-Nov-14 02:30N 60°05' E 028°24'816.4
2017-Nov-14 02:00N 60°03' E 028°40'916.9
2017-Nov-14 01:30N 60°02' E 028°58'1615.1
2017-Nov-14 00:26N 60°02' E 029°30'613.8
2017-Nov-14 00:00N 59°60' E 029°41'1 2.3
2017-Nov-13 23:29N 60°00' E 029°43'0 0.1
2017-Nov-13 22:56N 60°00' E 029°43'0 0.0
2017-Nov-13 22:26N 60°00' E 029°43'0 0.0
2017-Nov-13 21:59N 60°00' E 029°43'140 7.0
2017-Nov-13 02:00N 59°48' E 025°04'815.5
2017-Nov-13 01:31N 59°46' E 024°49'815.7
2017-Nov-13 01:01N 59°45' E 024°34'815.6
2017-Nov-13 00:30N 59°43' E 024°19'815.6
2017-Nov-12 23:59N 59°40' E 024°03'715.7
2017-Nov-12 23:31N 59°38' E 023°49'815.7
2017-Nov-12 23:00N 59°36' E 023°35'815.7
2017-Nov-12 22:30N 59°33' E 023°20'815.7
2017-Nov-12 22:00N 59°31' E 023°05'28016.2
2017-Nov-12 04:42N 56°09' E 017°01'416.5
2017-Nov-12 04:30N 56°07' E 016°56'816.5
2017-Nov-12 04:01N 56°02' E 016°45'816.5
2017-Nov-12 03:30N 55°58' E 016°32'816.7
2017-Nov-12 03:01N 55°54' E 016°19'816.7
2017-Nov-12 02:31N 55°50' E 016°06'816.7
2017-Nov-12 02:01N 55°45' E 015°53'816.7
2017-Nov-12 01:31N 55°42' E 015°40'816.7
2017-Nov-12 01:01N 55°38' E 015°27'816.8
2017-Nov-12 00:30N 55°34' E 015°14'816.6
2017-Nov-12 00:00N 55°30' E 015°01'816.7
2017-Nov-11 23:30N 55°26' E 014°48'816.3
2017-Nov-11 23:00N 55°22' E 014°36'816.6
2017-Nov-11 22:30N 55°16' E 014°27'816.6
2017-Nov-11 22:00N 55°09' E 014°18'816.5
2017-Nov-11 21:30N 55°02' E 014°09'916.8
2017-Nov-11 20:58N 54°59' E 013°55'4416.7
2017-Nov-11 18:18N 54°44' E 012°42'1116.8
2017-Nov-11 17:39N 54°38' E 012°26'316.9
2017-Nov-11 17:29N 54°36' E 012°22'1515.7
2017-Nov-11 16:31N 54°24' E 012°06'017.8
2017-Nov-11 16:30N 54°24' E 012°06'917.2
2017-Nov-11 16:00N 54°24' E 011°51'817.1
2017-Nov-11 15:31N 54°27' E 011°37'917.7
2017-Nov-11 15:01N 54°31' E 011°23'918.0
2017-Nov-11 14:31N 54°35' E 011°09'917.5
2017-Nov-11 14:01N 54°35' E 010°54'817.0
2017-Nov-11 13:31N 54°34' E 010°40'816.7
2017-Nov-11 13:01N 54°31' E 010°26'18 6.4
2017-Nov-11 10:08N 54°21' E 009°60'2 8.2
2017-Nov-11 09:53N 54°20' E 009°56'3 6.0
2017-Nov-11 09:23N 54°22' E 009°51'3 8.1
2017-Nov-11 09:00N 54°21' E 009°46'4 8.1
2017-Nov-11 08:30N 54°18' E 009°42'3 6.3
2017-Nov-11 08:00N 54°16' E 009°38'4 7.1
2017-Nov-11 07:30N 54°13' E 009°35'4 7.3
2017-Nov-11 07:00N 54°11' E 009°30'4 7.8
2017-Nov-11 06:30N 54°10' E 009°24'4 7.6
2017-Nov-11 06:00N 54°07' E 009°20'4 8.4
2017-Nov-11 05:30N 54°03' E 009°18'4 8.3
2017-Nov-11 05:01N 53°59' E 009°16'4 8.4
2017-Nov-11 04:30N 53°55' E 009°12'3 5.0
2017-Nov-11 04:00N 53°54' E 009°09'0 0.0
2017-Nov-11 03:30N 53°54' E 009°09'0 0.0
2017-Nov-11 03:01N 53°54' E 009°09'2 3.8
2017-Nov-11 02:30N 53°53' E 009°06'611.2
2017-Nov-11 02:01N 53°51' E 008°57'815.0
2017-Nov-11 01:30N 53°52' E 008°44'611.0
2017-Nov-11 01:00N 53°56' E 008°39'714.6
2017-Nov-11 00:30N 53°59' E 008°27'816.8
2017-Nov-11 00:01N 53°60' E 008°13'815.4
2017-Nov-10 23:30N 53°58' E 008°00'815.9
2017-Nov-10 23:01N 53°56' E 007°47'815.5
2017-Nov-10 22:29N 53°55' E 007°33'11513.2
2017-Nov-10 13:46N 53°13' E 004°33'312.8
2017-Nov-10 13:30N 53°10' E 004°30'712.9
2017-Nov-10 12:55N 53°04' E 004°23'613.3
2017-Nov-10 12:30N 52°59' E 004°20'713.4
2017-Nov-10 12:00N 52°52' E 004°15'713.8
2017-Nov-10 11:30N 52°46' E 004°09'814.5
2017-Nov-10 10:59N 52°40' E 004°03'815.6
2017-Nov-10 10:30N 52°33' E 003°57'815.7
2017-Nov-10 10:00N 52°26' E 003°54'815.8
2017-Nov-10 09:30N 52°18' E 003°52'815.9
2017-Nov-10 09:00N 52°10' E 003°54'816.4
2017-Nov-10 08:31N 52°02' E 003°58'611.4
2017-Nov-10 08:00N 51°59' E 004°06'612.4
2017-Nov-10 07:30N 51°55' E 004°14'5 9.5
2017-Nov-10 07:00N 51°54' E 004°21'3 5.1
2017-Nov-10 06:30N 51°53' E 004°25'0 0.0
2017-Nov-10 06:00N 51°53' E 004°25'0 0.0
2017-Nov-10 05:30N 51°53' E 004°25'0 0.0
2017-Nov-10 05:00N 51°53' E 004°25'0 0.0
2017-Nov-10 04:30N 51°53' E 004°25'0 0.0
2017-Nov-10 04:00N 51°53' E 004°25'0 0.0
2017-Nov-10 03:30N 51°53' E 004°25'0 0.0
2017-Nov-10 03:00N 51°53' E 004°25'0 0.0
2017-Nov-10 02:30N 51°53' E 004°25'0 0.0
2017-Nov-10 02:00N 51°53' E 004°25'0 0.0
2017-Nov-10 01:30N 51°53' E 004°25'0 0.1
2017-Nov-10 01:00N 51°53' E 004°25'  

Dump ship's entire track history